sensor_id;sensor_type;location;lat;lon;timestamp;P1;durP1;ratioP1;P2;durP2;ratioP2
42478;SDS011;28110;47.080;9.476;2023-06-04T00:01:21;7.28;;;3.20;;
42478;SDS011;28110;47.080;9.476;2023-06-04T00:03:46;4.90;;;3.40;;
42478;SDS011;28110;47.080;9.476;2023-06-04T00:06:12;6.55;;;4.00;;
42478;SDS011;28110;47.080;9.476;2023-06-04T00:08:38;7.73;;;3.67;;
42478;SDS011;28110;47.080;9.476;2023-06-04T00:11:03;4.63;;;3.40;;
42478;SDS011;28110;47.080;9.476;2023-06-04T00:13:29;3.77;;;3.00;;
42478;SDS011;28110;47.080;9.476;2023-06-04T00:15:54;6.80;;;3.37;;
42478;SDS011;28110;47.080;9.476;2023-06-04T00:18:20;6.40;;;3.70;;
42478;SDS011;28110;47.080;9.476;2023-06-04T00:20:45;5.30;;;3.33;;
42478;SDS011;28110;47.080;9.476;2023-06-04T00:23:11;4.40;;;3.23;;
42478;SDS011;28110;47.080;9.476;2023-06-04T00:25:37;4.78;;;3.30;;
42478;SDS011;28110;47.080;9.476;2023-06-04T00:28:02;5.20;;;3.70;;
42478;SDS011;28110;47.080;9.476;2023-06-04T00:30:28;4.90;;;3.33;;
42478;SDS011;28110;47.080;9.476;2023-06-04T00:32:53;5.55;;;3.17;;
42478;SDS011;28110;47.080;9.476;2023-06-04T00:35:19;5.90;;;3.40;;
42478;SDS011;28110;47.080;9.476;2023-06-04T00:37:45;5.05;;;3.38;;
42478;SDS011;28110;47.080;9.476;2023-06-04T00:40:11;6.27;;;3.40;;
42478;SDS011;28110;47.080;9.476;2023-06-04T00:42:37;6.35;;;3.20;;
42478;SDS011;28110;47.080;9.476;2023-06-04T00:45:03;5.87;;;3.30;;
42478;SDS011;28110;47.080;9.476;2023-06-04T00:47:30;4.93;;;3.80;;
42478;SDS011;28110;47.080;9.476;2023-06-04T00:49:56;5.05;;;3.38;;
42478;SDS011;28110;47.080;9.476;2023-06-04T00:52:23;4.32;;;3.20;;
42478;SDS011;28110;47.080;9.476;2023-06-04T00:54:49;6.17;;;3.30;;
42478;SDS011;28110;47.080;9.476;2023-06-04T00:57:16;4.25;;;3.22;;
42478;SDS011;28110;47.080;9.476;2023-06-04T00:59:41;4.90;;;3.03;;
42478;SDS011;28110;47.080;9.476;2023-06-04T01:02:14;5.63;;;3.58;;
42478;SDS011;28110;47.080;9.476;2023-06-04T01:07:20;4.77;;;3.23;;
42478;SDS011;28110;47.080;9.476;2023-06-04T01:09:47;4.55;;;3.28;;
42478;SDS011;28110;47.080;9.476;2023-06-04T01:12:14;4.75;;;3.50;;
42478;SDS011;28110;47.080;9.476;2023-06-04T01:14:40;6.85;;;3.38;;
42478;SDS011;28110;47.080;9.476;2023-06-04T01:20:12;6.53;;;3.55;;
42478;SDS011;28110;47.080;9.476;2023-06-04T01:28:10;4.93;;;3.33;;
42478;SDS011;28110;47.080;9.476;2023-06-04T01:30:38;7.03;;;3.70;;
42478;SDS011;28110;47.080;9.476;2023-06-04T01:33:07;5.60;;;3.33;;
42478;SDS011;28110;47.080;9.476;2023-06-04T01:35:36;4.55;;;3.50;;
42478;SDS011;28110;47.080;9.476;2023-06-04T01:38:02;5.47;;;3.27;;
42478;SDS011;28110;47.080;9.476;2023-06-04T01:40:28;5.03;;;3.17;;
42478;SDS011;28110;47.080;9.476;2023-06-04T01:42:54;6.95;;;3.40;;
42478;SDS011;28110;47.080;9.476;2023-06-04T01:45:21;5.78;;;3.28;;
42478;SDS011;28110;47.080;9.476;2023-06-04T01:47:47;3.88;;;3.10;;
42478;SDS011;28110;47.080;9.476;2023-06-04T01:50:13;4.28;;;3.20;;
42478;SDS011;28110;47.080;9.476;2023-06-04T01:52:39;4.40;;;2.90;;
42478;SDS011;28110;47.080;9.476;2023-06-04T01:55:05;6.93;;;3.40;;
42478;SDS011;28110;47.080;9.476;2023-06-04T01:57:37;8.80;;;3.63;;
42478;SDS011;28110;47.080;9.476;2023-06-04T02:00:03;5.63;;;3.88;;
42478;SDS011;28110;47.080;9.476;2023-06-04T02:02:32;6.63;;;3.40;;
42478;SDS011;28110;47.080;9.476;2023-06-04T02:04:58;6.78;;;3.83;;
42478;SDS011;28110;47.080;9.476;2023-06-04T02:07:23;9.00;;;4.57;;
42478;SDS011;28110;47.080;9.476;2023-06-04T02:09:50;7.60;;;4.40;;
42478;SDS011;28110;47.080;9.476;2023-06-04T02:12:16;8.40;;;4.50;;
42478;SDS011;28110;47.080;9.476;2023-06-04T02:14:42;7.78;;;4.50;;
42478;SDS011;28110;47.080;9.476;2023-06-04T02:17:10;7.43;;;4.28;;
42478;SDS011;28110;47.080;9.476;2023-06-04T02:19:38;8.18;;;4.20;;
42478;SDS011;28110;47.080;9.476;2023-06-04T02:22:05;6.95;;;4.03;;
42478;SDS011;28110;47.080;9.476;2023-06-04T02:24:31;7.65;;;4.18;;
42478;SDS011;28110;47.080;9.476;2023-06-04T02:26:56;5.37;;;3.63;;
42478;SDS011;28110;47.080;9.476;2023-06-04T02:29:22;6.97;;;3.78;;
42478;SDS011;28110;47.080;9.476;2023-06-04T02:31:47;13.60;;;4.43;;
42478;SDS011;28110;47.080;9.476;2023-06-04T02:34:13;8.30;;;4.77;;
42478;SDS011;28110;47.080;9.476;2023-06-04T02:36:38;9.27;;;4.60;;
42478;SDS011;28110;47.080;9.476;2023-06-04T02:39:04;10.03;;;4.13;;
42478;SDS011;28110;47.080;9.476;2023-06-04T02:41:29;7.13;;;4.17;;
42478;SDS011;28110;47.080;9.476;2023-06-04T02:43:55;9.73;;;4.28;;
42478;SDS011;28110;47.080;9.476;2023-06-04T02:46:20;6.63;;;4.33;;
42478;SDS011;28110;47.080;9.476;2023-06-04T02:48:46;6.10;;;4.37;;
42478;SDS011;28110;47.080;9.476;2023-06-04T02:51:11;5.97;;;4.13;;
42478;SDS011;28110;47.080;9.476;2023-06-04T02:53:37;6.90;;;4.50;;
42478;SDS011;28110;47.080;9.476;2023-06-04T02:56:02;7.53;;;3.87;;
42478;SDS011;28110;47.080;9.476;2023-06-04T02:58:28;6.25;;;4.30;;
42478;SDS011;28110;47.080;9.476;2023-06-04T03:00:54;7.07;;;4.10;;
42478;SDS011;28110;47.080;9.476;2023-06-04T03:03:20;6.15;;;4.35;;
42478;SDS011;28110;47.080;9.476;2023-06-04T03:05:45;6.43;;;4.00;;
42478;SDS011;28110;47.080;9.476;2023-06-04T03:08:11;5.97;;;4.00;;
42478;SDS011;28110;47.080;9.476;2023-06-04T03:10:37;5.75;;;3.92;;
42478;SDS011;28110;47.080;9.476;2023-06-04T03:13:02;6.33;;;3.80;;
42478;SDS011;28110;47.080;9.476;2023-06-04T03:15:28;7.65;;;3.75;;
42478;SDS011;28110;47.080;9.476;2023-06-04T03:17:54;5.77;;;3.77;;
42478;SDS011;28110;47.080;9.476;2023-06-04T03:20:19;7.63;;;4.10;;
42478;SDS011;28110;47.080;9.476;2023-06-04T03:22:49;6.22;;;4.25;;
42478;SDS011;28110;47.080;9.476;2023-06-04T03:25:15;6.75;;;4.38;;
42478;SDS011;28110;47.080;9.476;2023-06-04T03:27:41;6.72;;;3.67;;
42478;SDS011;28110;47.080;9.476;2023-06-04T03:30:06;8.10;;;3.80;;
42478;SDS011;28110;47.080;9.476;2023-06-04T03:32:32;6.97;;;3.97;;
42478;SDS011;28110;47.080;9.476;2023-06-04T03:34:58;6.30;;;4.07;;
42478;SDS011;28110;47.080;9.476;2023-06-04T03:37:24;9.07;;;4.20;;
42478;SDS011;28110;47.080;9.476;2023-06-04T03:39:51;5.15;;;3.58;;
42478;SDS011;28110;47.080;9.476;2023-06-04T03:42:16;6.53;;;3.70;;
42478;SDS011;28110;47.080;9.476;2023-06-04T03:44:42;6.27;;;3.70;;
42478;SDS011;28110;47.080;9.476;2023-06-04T03:47:07;6.00;;;3.63;;
42478;SDS011;28110;47.080;9.476;2023-06-04T03:49:33;6.90;;;3.80;;
42478;SDS011;28110;47.080;9.476;2023-06-04T03:51:58;5.97;;;3.90;;
42478;SDS011;28110;47.080;9.476;2023-06-04T03:54:24;7.72;;;4.00;;
42478;SDS011;28110;47.080;9.476;2023-06-04T03:56:49;5.80;;;4.33;;
42478;SDS011;28110;47.080;9.476;2023-06-04T03:59:15;6.57;;;4.60;;
42478;SDS011;28110;47.080;9.476;2023-06-04T04:01:41;6.22;;;4.28;;
42478;SDS011;28110;47.080;9.476;2023-06-04T04:04:07;8.87;;;4.87;;
42478;SDS011;28110;47.080;9.476;2023-06-04T04:06:32;6.95;;;4.35;;
42478;SDS011;28110;47.080;9.476;2023-06-04T04:08:58;6.13;;;4.57;;
42478;SDS011;28110;47.080;9.476;2023-06-04T04:11:24;7.93;;;4.80;;
42478;SDS011;28110;47.080;9.476;2023-06-04T04:13:50;9.47;;;4.60;;
42478;SDS011;28110;47.080;9.476;2023-06-04T04:16:16;5.80;;;4.38;;
42478;SDS011;28110;47.080;9.476;2023-06-04T04:18:42;7.60;;;4.60;;
42478;SDS011;28110;47.080;9.476;2023-06-04T04:21:08;9.43;;;4.65;;
42478;SDS011;28110;47.080;9.476;2023-06-04T04:23:35;10.30;;;4.93;;
42478;SDS011;28110;47.080;9.476;2023-06-04T04:26:03;6.33;;;3.87;;
42478;SDS011;28110;47.080;9.476;2023-06-04T04:28:28;6.97;;;5.05;;
42478;SDS011;28110;47.080;9.476;2023-06-04T04:30:55;10.20;;;4.72;;
42478;SDS011;28110;47.080;9.476;2023-06-04T04:33:27;7.65;;;4.50;;
42478;SDS011;28110;47.080;9.476;2023-06-04T04:35:57;12.20;;;4.60;;
42478;SDS011;28110;47.080;9.476;2023-06-04T04:38:24;11.63;;;4.78;;
42478;SDS011;28110;47.080;9.476;2023-06-04T04:40:50;8.60;;;4.57;;
42478;SDS011;28110;47.080;9.476;2023-06-04T04:43:17;9.13;;;4.35;;
42478;SDS011;28110;47.080;9.476;2023-06-04T04:45:56;6.88;;;4.30;;
42478;SDS011;28110;47.080;9.476;2023-06-04T04:48:21;7.93;;;4.50;;
42478;SDS011;28110;47.080;9.476;2023-06-04T04:50:47;7.03;;;4.45;;
42478;SDS011;28110;47.080;9.476;2023-06-04T04:53:12;8.07;;;4.37;;
42478;SDS011;28110;47.080;9.476;2023-06-04T04:55:38;8.80;;;4.97;;
42478;SDS011;28110;47.080;9.476;2023-06-04T04:58:03;6.85;;;4.72;;
42478;SDS011;28110;47.080;9.476;2023-06-04T05:00:29;9.37;;;4.90;;
42478;SDS011;28110;47.080;9.476;2023-06-04T05:02:55;8.02;;;4.60;;
42478;SDS011;28110;47.080;9.476;2023-06-04T05:05:20;8.70;;;5.07;;
42478;SDS011;28110;47.080;9.476;2023-06-04T05:07:46;9.48;;;5.00;;
42478;SDS011;28110;47.080;9.476;2023-06-04T05:10:12;7.63;;;4.77;;
42478;SDS011;28110;47.080;9.476;2023-06-04T05:12:38;8.85;;;4.30;;
42478;SDS011;28110;47.080;9.476;2023-06-04T05:15:03;7.50;;;4.10;;
42478;SDS011;28110;47.080;9.476;2023-06-04T05:17:29;8.52;;;5.03;;
42478;SDS011;28110;47.080;9.476;2023-06-04T05:19:55;6.03;;;4.37;;
42478;SDS011;28110;47.080;9.476;2023-06-04T05:22:36;6.60;;;4.43;;
42478;SDS011;28110;47.080;9.476;2023-06-04T05:25:02;11.13;;;4.95;;
42478;SDS011;28110;47.080;9.476;2023-06-04T05:27:28;5.82;;;4.70;;
42478;SDS011;28110;47.080;9.476;2023-06-04T05:29:54;7.63;;;4.97;;
42478;SDS011;28110;47.080;9.476;2023-06-04T05:32:19;6.83;;;4.40;;
42478;SDS011;28110;47.080;9.476;2023-06-04T05:34:47;6.60;;;4.75;;
42478;SDS011;28110;47.080;9.476;2023-06-04T05:37:13;12.10;;;4.83;;
42478;SDS011;28110;47.080;9.476;2023-06-04T05:39:41;8.05;;;4.88;;
42478;SDS011;28110;47.080;9.476;2023-06-04T05:42:07;6.85;;;4.30;;
42478;SDS011;28110;47.080;9.476;2023-06-04T05:44:33;8.68;;;4.85;;
42478;SDS011;28110;47.080;9.476;2023-06-04T05:46:58;6.55;;;4.57;;
42478;SDS011;28110;47.080;9.476;2023-06-04T05:49:24;7.93;;;4.60;;
42478;SDS011;28110;47.080;9.476;2023-06-04T05:51:50;6.93;;;4.35;;
42478;SDS011;28110;47.080;9.476;2023-06-04T05:54:15;6.83;;;4.47;;
42478;SDS011;28110;47.080;9.476;2023-06-04T05:56:41;6.78;;;4.40;;
42478;SDS011;28110;47.080;9.476;2023-06-04T05:59:06;7.47;;;4.70;;
42478;SDS011;28110;47.080;9.476;2023-06-04T06:01:32;11.40;;;4.83;;
42478;SDS011;28110;47.080;9.476;2023-06-04T06:03:57;8.90;;;4.73;;
42478;SDS011;28110;47.080;9.476;2023-06-04T06:06:23;7.55;;;4.90;;
42478;SDS011;28110;47.080;9.476;2023-06-04T06:08:48;5.53;;;4.30;;
42478;SDS011;28110;47.080;9.476;2023-06-04T06:11:14;7.78;;;4.38;;
42478;SDS011;28110;47.080;9.476;2023-06-04T06:13:41;6.83;;;4.97;;
42478;SDS011;28110;47.080;9.476;2023-06-04T06:16:06;7.55;;;4.80;;
42478;SDS011;28110;47.080;9.476;2023-06-04T06:18:32;6.43;;;4.20;;
42478;SDS011;28110;47.080;9.476;2023-06-04T06:20:58;7.32;;;4.03;;
42478;SDS011;28110;47.080;9.476;2023-06-04T06:23:23;7.00;;;4.60;;
42478;SDS011;28110;47.080;9.476;2023-06-04T06:25:49;8.03;;;5.00;;
42478;SDS011;28110;47.080;9.476;2023-06-04T06:28:17;6.37;;;4.67;;
42478;SDS011;28110;47.080;9.476;2023-06-04T06:30:43;8.57;;;4.57;;
42478;SDS011;28110;47.080;9.476;2023-06-04T06:33:09;6.57;;;4.32;;
42478;SDS011;28110;47.080;9.476;2023-06-04T06:35:35;8.25;;;4.35;;
42478;SDS011;28110;47.080;9.476;2023-06-04T06:38:01;5.70;;;4.10;;
42478;SDS011;28110;47.080;9.476;2023-06-04T06:40:26;6.75;;;4.55;;
42478;SDS011;28110;47.080;9.476;2023-06-04T06:42:52;11.07;;;4.70;;
42478;SDS011;28110;47.080;9.476;2023-06-04T06:45:18;10.03;;;4.70;;
42478;SDS011;28110;47.080;9.476;2023-06-04T06:47:44;8.07;;;4.55;;
42478;SDS011;28110;47.080;9.476;2023-06-04T06:50:10;7.75;;;4.30;;
42478;SDS011;28110;47.080;9.476;2023-06-04T06:52:36;10.05;;;4.47;;
42478;SDS011;28110;47.080;9.476;2023-06-04T06:55:03;5.40;;;4.20;;
42478;SDS011;28110;47.080;9.476;2023-06-04T06:57:29;6.95;;;4.45;;
42478;SDS011;28110;47.080;9.476;2023-06-04T06:59:55;6.93;;;4.25;;
42478;SDS011;28110;47.080;9.476;2023-06-04T07:02:21;5.35;;;4.05;;
42478;SDS011;28110;47.080;9.476;2023-06-04T07:04:47;7.77;;;4.17;;
42478;SDS011;28110;47.080;9.476;2023-06-04T07:07:13;7.05;;;4.43;;
42478;SDS011;28110;47.080;9.476;2023-06-04T07:09:38;8.37;;;4.57;;
42478;SDS011;28110;47.080;9.476;2023-06-04T07:12:04;5.97;;;4.43;;
42478;SDS011;28110;47.080;9.476;2023-06-04T07:14:30;5.50;;;4.38;;
42478;SDS011;28110;47.080;9.476;2023-06-04T07:16:56;6.33;;;4.60;;
42478;SDS011;28110;47.080;9.476;2023-06-04T07:19:21;11.10;;;4.97;;
42478;SDS011;28110;47.080;9.476;2023-06-04T07:21:47;10.18;;;5.03;;
42478;SDS011;28110;47.080;9.476;2023-06-04T07:24:13;7.77;;;4.20;;
42478;SDS011;28110;47.080;9.476;2023-06-04T07:26:38;7.00;;;4.50;;
42478;SDS011;28110;47.080;9.476;2023-06-04T07:29:04;8.45;;;4.80;;
42478;SDS011;28110;47.080;9.476;2023-06-04T07:31:29;7.93;;;4.90;;
42478;SDS011;28110;47.080;9.476;2023-06-04T07:33:55;11.27;;;5.13;;
42478;SDS011;28110;47.080;9.476;2023-06-04T07:36:20;8.17;;;4.93;;
42478;SDS011;28110;47.080;9.476;2023-06-04T07:38:47;9.25;;;4.95;;
42478;SDS011;28110;47.080;9.476;2023-06-04T07:41:13;7.70;;;5.17;;
42478;SDS011;28110;47.080;9.476;2023-06-04T07:43:38;7.40;;;4.87;;
42478;SDS011;28110;47.080;9.476;2023-06-04T07:46:04;8.07;;;4.80;;
42478;SDS011;28110;47.080;9.476;2023-06-04T07:48:30;9.00;;;4.57;;
42478;SDS011;28110;47.080;9.476;2023-06-04T07:50:59;6.78;;;5.20;;
42478;SDS011;28110;47.080;9.476;2023-06-04T07:53:26;6.38;;;4.60;;
42478;SDS011;28110;47.080;9.476;2023-06-04T07:55:52;6.93;;;4.60;;
42478;SDS011;28110;47.080;9.476;2023-06-04T07:58:18;6.55;;;4.70;;
42478;SDS011;28110;47.080;9.476;2023-06-04T08:00:44;15.47;;;5.50;;
42478;SDS011;28110;47.080;9.476;2023-06-04T08:03:10;9.00;;;5.47;;
42478;SDS011;28110;47.080;9.476;2023-06-04T08:05:35;6.53;;;5.10;;
42478;SDS011;28110;47.080;9.476;2023-06-04T08:08:01;7.90;;;5.15;;
42478;SDS011;28110;47.080;9.476;2023-06-04T08:10:28;7.03;;;4.97;;
42478;SDS011;28110;47.080;9.476;2023-06-04T08:12:54;8.15;;;5.35;;
42478;SDS011;28110;47.080;9.476;2023-06-04T08:15:20;9.57;;;4.97;;
42478;SDS011;28110;47.080;9.476;2023-06-04T08:17:46;10.82;;;5.35;;
42478;SDS011;28110;47.080;9.476;2023-06-04T08:20:12;7.33;;;4.97;;
42478;SDS011;28110;47.080;9.476;2023-06-04T08:22:37;7.63;;;4.90;;
42478;SDS011;28110;47.080;9.476;2023-06-04T08:25:03;9.90;;;5.13;;
42478;SDS011;28110;47.080;9.476;2023-06-04T08:27:29;9.60;;;5.18;;
42478;SDS011;28110;47.080;9.476;2023-06-04T08:29:55;5.93;;;5.03;;
42478;SDS011;28110;47.080;9.476;2023-06-04T08:32:22;9.05;;;5.90;;
42478;SDS011;28110;47.080;9.476;2023-06-04T08:34:48;8.77;;;5.80;;
42478;SDS011;28110;47.080;9.476;2023-06-04T08:37:13;9.00;;;6.00;;
42478;SDS011;28110;47.080;9.476;2023-06-04T08:39:40;9.27;;;6.30;;
42478;SDS011;28110;47.080;9.476;2023-06-04T08:42:09;9.67;;;5.97;;
42478;SDS011;28110;47.080;9.476;2023-06-04T08:44:44;8.02;;;5.72;;
42478;SDS011;28110;47.080;9.476;2023-06-04T08:47:12;8.63;;;5.97;;
42478;SDS011;28110;47.080;9.476;2023-06-04T08:49:40;7.65;;;5.35;;
42478;SDS011;28110;47.080;9.476;2023-06-04T08:52:06;9.52;;;6.18;;
42478;SDS011;28110;47.080;9.476;2023-06-04T08:54:32;11.30;;;5.77;;
42478;SDS011;28110;47.080;9.476;2023-06-04T08:56:58;9.80;;;5.95;;
42478;SDS011;28110;47.080;9.476;2023-06-04T08:59:25;6.75;;;5.28;;
42478;SDS011;28110;47.080;9.476;2023-06-04T09:01:51;9.27;;;5.63;;
42478;SDS011;28110;47.080;9.476;2023-06-04T09:04:18;9.90;;;5.95;;
42478;SDS011;28110;47.080;9.476;2023-06-04T09:06:44;9.60;;;5.82;;
42478;SDS011;28110;47.080;9.476;2023-06-04T09:09:11;9.43;;;5.38;;
42478;SDS011;28110;47.080;9.476;2023-06-04T09:11:50;8.20;;;5.60;;
42478;SDS011;28110;47.080;9.476;2023-06-04T09:14:17;10.13;;;5.95;;
42478;SDS011;28110;47.080;9.476;2023-06-04T09:16:47;11.68;;;6.55;;
42478;SDS011;28110;47.080;9.476;2023-06-04T09:19:14;7.50;;;6.00;;
42478;SDS011;28110;47.080;9.476;2023-06-04T09:24:20;8.57;;;5.70;;
42478;SDS011;28110;47.080;9.476;2023-06-04T09:26:47;6.38;;;5.10;;
42478;SDS011;28110;47.080;9.476;2023-06-04T09:29:14;7.53;;;5.18;;
42478;SDS011;28110;47.080;9.476;2023-06-04T09:31:41;8.18;;;5.10;;
42478;SDS011;28110;47.080;9.476;2023-06-04T09:34:09;6.75;;;5.63;;
42478;SDS011;28110;47.080;9.476;2023-06-04T09:36:35;5.93;;;5.07;;
42478;SDS011;28110;47.080;9.476;2023-06-04T09:39:02;7.47;;;5.65;;
42478;SDS011;28110;47.080;9.476;2023-06-04T09:41:29;8.93;;;5.30;;
42478;SDS011;28110;47.080;9.476;2023-06-04T09:44:04;11.13;;;5.27;;
42478;SDS011;28110;47.080;9.476;2023-06-04T09:46:30;8.35;;;5.50;;
42478;SDS011;28110;47.080;9.476;2023-06-04T09:49:00;8.73;;;5.90;;
42478;SDS011;28110;47.080;9.476;2023-06-04T09:51:27;6.17;;;5.10;;
42478;SDS011;28110;47.080;9.476;2023-06-04T09:53:53;7.57;;;5.45;;
42478;SDS011;28110;47.080;9.476;2023-06-04T09:56:20;7.68;;;5.32;;
42478;SDS011;28110;47.080;9.476;2023-06-04T09:58:47;7.60;;;5.30;;
42478;SDS011;28110;47.080;9.476;2023-06-04T10:01:14;8.25;;;5.10;;
42478;SDS011;28110;47.080;9.476;2023-06-04T10:03:41;7.88;;;4.50;;
42478;SDS011;28110;47.080;9.476;2023-06-04T10:06:11;7.07;;;5.03;;
42478;SDS011;28110;47.080;9.476;2023-06-04T10:08:40;7.20;;;4.70;;
42478;SDS011;28110;47.080;9.476;2023-06-04T10:11:07;7.43;;;5.13;;
42478;SDS011;28110;47.080;9.476;2023-06-04T10:13:41;7.20;;;5.03;;
42478;SDS011;28110;47.080;9.476;2023-06-04T10:16:12;10.35;;;5.43;;
42478;SDS011;28110;47.080;9.476;2023-06-04T10:18:39;7.93;;;5.10;;
42478;SDS011;28110;47.080;9.476;2023-06-04T10:21:04;7.07;;;5.10;;
42478;SDS011;28110;47.080;9.476;2023-06-04T10:23:33;8.35;;;4.90;;
42478;SDS011;28110;47.080;9.476;2023-06-04T10:25:58;6.38;;;4.65;;
42478;SDS011;28110;47.080;9.476;2023-06-04T10:28:25;7.10;;;4.90;;
42478;SDS011;28110;47.080;9.476;2023-06-04T10:30:51;10.63;;;5.22;;
42478;SDS011;28110;47.080;9.476;2023-06-04T10:33:17;9.38;;;4.95;;
42478;SDS011;28110;47.080;9.476;2023-06-04T10:35:45;8.90;;;5.23;;
42478;SDS011;28110;47.080;9.476;2023-06-04T10:38:11;6.75;;;5.35;;
42478;SDS011;28110;47.080;9.476;2023-06-04T10:40:39;9.77;;;5.35;;
42478;SDS011;28110;47.080;9.476;2023-06-04T10:43:05;7.13;;;4.97;;
42478;SDS011;28110;47.080;9.476;2023-06-04T10:45:32;7.27;;;5.27;;
42478;SDS011;28110;47.080;9.476;2023-06-04T10:48:01;8.82;;;5.40;;
42478;SDS011;28110;47.080;9.476;2023-06-04T10:50:31;7.80;;;5.13;;
42478;SDS011;28110;47.080;9.476;2023-06-04T10:52:58;6.67;;;4.90;;
42478;SDS011;28110;47.080;9.476;2023-06-04T10:55:27;10.52;;;5.72;;
42478;SDS011;28110;47.080;9.476;2023-06-04T10:57:54;10.63;;;5.28;;
42478;SDS011;28110;47.080;9.476;2023-06-04T11:00:21;7.15;;;4.60;;
42478;SDS011;28110;47.080;9.476;2023-06-04T11:02:53;6.68;;;4.63;;
42478;SDS011;28110;47.080;9.476;2023-06-04T11:05:20;7.57;;;5.40;;
42478;SDS011;28110;47.080;9.476;2023-06-04T11:07:47;6.10;;;5.05;;
42478;SDS011;28110;47.080;9.476;2023-06-04T11:10:14;11.32;;;5.13;;
42478;SDS011;28110;47.080;9.476;2023-06-04T11:12:48;7.70;;;4.75;;
42478;SDS011;28110;47.080;9.476;2023-06-04T11:15:18;9.70;;;4.87;;
42478;SDS011;28110;47.080;9.476;2023-06-04T11:17:50;8.38;;;4.53;;
42478;SDS011;28110;47.080;9.476;2023-06-04T11:20:20;7.18;;;4.68;;
42478;SDS011;28110;47.080;9.476;2023-06-04T11:22:57;9.77;;;4.40;;
42478;SDS011;28110;47.080;9.476;2023-06-04T11:25:24;7.23;;;4.80;;
42478;SDS011;28110;47.080;9.476;2023-06-04T11:27:51;13.73;;;5.20;;
42478;SDS011;28110;47.080;9.476;2023-06-04T11:30:19;8.07;;;5.03;;
42478;SDS011;28110;47.080;9.476;2023-06-04T11:32:45;7.18;;;4.97;;
42478;SDS011;28110;47.080;9.476;2023-06-04T11:35:11;7.70;;;5.00;;
42478;SDS011;28110;47.080;9.476;2023-06-04T11:37:37;6.50;;;4.93;;
42478;SDS011;28110;47.080;9.476;2023-06-04T11:40:03;6.78;;;4.95;;
42478;SDS011;28110;47.080;9.476;2023-06-04T11:42:41;8.40;;;5.00;;
42478;SDS011;28110;47.080;9.476;2023-06-04T11:45:08;7.23;;;4.73;;
42478;SDS011;28110;47.080;9.476;2023-06-04T11:47:35;8.43;;;4.53;;
42478;SDS011;28110;47.080;9.476;2023-06-04T11:50:01;7.73;;;4.40;;
42478;SDS011;28110;47.080;9.476;2023-06-04T11:52:27;12.50;;;5.00;;
42478;SDS011;28110;47.080;9.476;2023-06-04T11:54:52;7.40;;;4.55;;
42478;SDS011;28110;47.080;9.476;2023-06-04T11:57:18;9.03;;;4.97;;
42478;SDS011;28110;47.080;9.476;2023-06-04T11:59:44;9.50;;;4.78;;
42478;SDS011;28110;47.080;9.476;2023-06-04T12:02:10;10.93;;;4.75;;
42478;SDS011;28110;47.080;9.476;2023-06-04T12:04:36;6.73;;;4.30;;
42478;SDS011;28110;47.080;9.476;2023-06-04T12:07:02;7.20;;;4.87;;
42478;SDS011;28110;47.080;9.476;2023-06-04T12:09:31;7.32;;;3.90;;
42478;SDS011;28110;47.080;9.476;2023-06-04T12:12:00;5.75;;;4.28;;
42478;SDS011;28110;47.080;9.476;2023-06-04T12:14:26;7.53;;;4.50;;
42478;SDS011;28110;47.080;9.476;2023-06-04T12:17:02;8.73;;;3.90;;
42478;SDS011;28110;47.080;9.476;2023-06-04T12:19:31;6.80;;;3.87;;
42478;SDS011;28110;47.080;9.476;2023-06-04T12:22:02;4.90;;;4.00;;
42478;SDS011;28110;47.080;9.476;2023-06-04T12:24:29;6.90;;;4.18;;
42478;SDS011;28110;47.080;9.476;2023-06-04T12:27:15;5.50;;;3.55;;
42478;SDS011;28110;47.080;9.476;2023-06-04T12:29:40;6.10;;;4.22;;
42478;SDS011;28110;47.080;9.476;2023-06-04T12:32:06;8.20;;;3.93;;
42478;SDS011;28110;47.080;9.476;2023-06-04T12:34:36;7.97;;;4.25;;
42478;SDS011;28110;47.080;9.476;2023-06-04T12:37:02;6.20;;;4.00;;
42478;SDS011;28110;47.080;9.476;2023-06-04T12:39:30;7.07;;;3.97;;
42478;SDS011;28110;47.080;9.476;2023-06-04T12:41:59;6.40;;;4.53;;
42478;SDS011;28110;47.080;9.476;2023-06-04T12:44:25;4.50;;;3.60;;
42478;SDS011;28110;47.080;9.476;2023-06-04T12:46:50;6.53;;;4.33;;
42478;SDS011;28110;47.080;9.476;2023-06-04T12:49:16;7.13;;;4.13;;
42478;SDS011;28110;47.080;9.476;2023-06-04T12:51:42;6.03;;;3.92;;
42478;SDS011;28110;47.080;9.476;2023-06-04T12:54:07;5.33;;;4.00;;
42478;SDS011;28110;47.080;9.476;2023-06-04T12:56:34;5.20;;;4.15;;
42478;SDS011;28110;47.080;9.476;2023-06-04T12:59:00;5.50;;;3.87;;
42478;SDS011;28110;47.080;9.476;2023-06-04T13:01:26;6.47;;;4.47;;
42478;SDS011;28110;47.080;9.476;2023-06-04T13:03:51;5.03;;;4.07;;
42478;SDS011;28110;47.080;9.476;2023-06-04T13:06:17;9.63;;;4.18;;
42478;SDS011;28110;47.080;9.476;2023-06-04T13:08:42;8.87;;;4.30;;
42478;SDS011;28110;47.080;9.476;2023-06-04T13:11:08;5.80;;;4.30;;
42478;SDS011;28110;47.080;9.476;2023-06-04T13:13:34;7.63;;;4.40;;
42478;SDS011;28110;47.080;9.476;2023-06-04T13:16:00;7.60;;;4.15;;
42478;SDS011;28110;47.080;9.476;2023-06-04T13:18:26;5.93;;;4.10;;
42478;SDS011;28110;47.080;9.476;2023-06-04T13:20:52;11.20;;;4.33;;
42478;SDS011;28110;47.080;9.476;2023-06-04T13:23:17;5.40;;;3.43;;
42478;SDS011;28110;47.080;9.476;2023-06-04T13:25:43;5.60;;;4.15;;
42478;SDS011;28110;47.080;9.476;2023-06-04T13:28:08;4.70;;;3.53;;
42478;SDS011;28110;47.080;9.476;2023-06-04T13:30:34;8.17;;;4.00;;
42478;SDS011;28110;47.080;9.476;2023-06-04T13:33:01;6.00;;;4.25;;
42478;SDS011;28110;47.080;9.476;2023-06-04T13:35:27;5.25;;;3.50;;
42478;SDS011;28110;47.080;9.476;2023-06-04T13:37:53;5.67;;;3.83;;
42478;SDS011;28110;47.080;9.476;2023-06-04T13:40:18;8.20;;;3.50;;
42478;SDS011;28110;47.080;9.476;2023-06-04T13:42:44;7.70;;;4.27;;
42478;SDS011;28110;47.080;9.476;2023-06-04T13:45:10;5.47;;;3.83;;
42478;SDS011;28110;47.080;9.476;2023-06-04T13:47:36;5.90;;;3.43;;
42478;SDS011;28110;47.080;9.476;2023-06-04T13:50:01;8.47;;;3.70;;
42478;SDS011;28110;47.080;9.476;2023-06-04T13:52:28;8.13;;;3.88;;
42478;SDS011;28110;47.080;9.476;2023-06-04T13:54:54;6.88;;;4.60;;
42478;SDS011;28110;47.080;9.476;2023-06-04T13:57:20;5.27;;;3.90;;
42478;SDS011;28110;47.080;9.476;2023-06-04T13:59:46;7.32;;;3.83;;
42478;SDS011;28110;47.080;9.476;2023-06-04T14:02:11;5.40;;;3.83;;
42478;SDS011;28110;47.080;9.476;2023-06-04T14:04:37;5.70;;;3.67;;
42478;SDS011;28110;47.080;9.476;2023-06-04T14:07:03;7.63;;;3.83;;
42478;SDS011;28110;47.080;9.476;2023-06-04T14:09:28;7.10;;;3.50;;
42478;SDS011;28110;47.080;9.476;2023-06-04T14:11:54;4.60;;;3.80;;
42478;SDS011;28110;47.080;9.476;2023-06-04T14:14:20;13.25;;;4.20;;
42478;SDS011;28110;47.080;9.476;2023-06-04T14:16:46;7.07;;;4.05;;
42478;SDS011;28110;47.080;9.476;2023-06-04T14:19:12;4.82;;;3.63;;
42478;SDS011;28110;47.080;9.476;2023-06-04T14:21:40;7.73;;;3.53;;
42478;SDS011;28110;47.080;9.476;2023-06-04T14:24:06;7.00;;;3.47;;
42478;SDS011;28110;47.080;9.476;2023-06-04T14:26:31;5.63;;;3.83;;
42478;SDS011;28110;47.080;9.476;2023-06-04T14:28:58;6.70;;;3.53;;
42478;SDS011;28110;47.080;9.476;2023-06-04T14:31:24;8.25;;;4.38;;
42478;SDS011;28110;47.080;9.476;2023-06-04T14:33:49;6.30;;;3.50;;
42478;SDS011;28110;47.080;9.476;2023-06-04T14:36:15;9.50;;;3.83;;
42478;SDS011;28110;47.080;9.476;2023-06-04T14:38:40;9.05;;;3.90;;
42478;SDS011;28110;47.080;9.476;2023-06-04T14:41:06;6.77;;;3.80;;
42478;SDS011;28110;47.080;9.476;2023-06-04T14:43:32;7.57;;;3.90;;
42478;SDS011;28110;47.080;9.476;2023-06-04T14:45:58;5.20;;;3.80;;
42478;SDS011;28110;47.080;9.476;2023-06-04T14:48:23;7.35;;;4.20;;
42478;SDS011;28110;47.080;9.476;2023-06-04T14:50:49;5.43;;;3.30;;
42478;SDS011;28110;47.080;9.476;2023-06-04T14:53:18;5.20;;;3.60;;
42478;SDS011;28110;47.080;9.476;2023-06-04T14:55:44;6.93;;;4.03;;